Time;durP1;ratioP1;P1;durP2;ratioP2;P2;SDS_P1;SDS_P2;PMS_P1;PMS_P2;Temp;Humidity;BMP_temperature;BMP_pressure;BME280_temperature;BME280_humidity;BME280_pressure;Samples;Min_cycle;Max_cycle;Signal;HPM_P1;HPM_P2
2023/12/21 00:02:11;;;;;;;16.42;3.25;;;10.70;99.90;;;;;;5028062;27;20032;-76
2023/12/21 00:04:36;;;;;;;16.17;3.03;;;10.70;99.90;;;;;;5027981;28;20029;-76
2023/12/21 00:07:02;;;;;;;22.33;2.92;;;10.70;99.90;;;;;;5021477;28;20021;-75
2023/12/21 00:09:27;;;;;;;17.23;2.88;;;10.70;99.90;;;;;;5026821;28;20026;-76
2023/12/21 00:11:53;;;;;;;20.02;2.67;;;10.70;99.90;;;;;;5027443;28;20025;-75
2023/12/21 00:14:18;;;;;;;18.25;2.50;;;10.70;99.90;;;;;;5020796;28;20510;-76
2023/12/21 00:16:44;;;;;;;16.58;2.65;;;10.70;99.90;;;;;;5026737;28;20057;-75
2023/12/21 00:19:10;;;;;;;14.38;2.65;;;10.70;99.90;;;;;;5010873;28;20493;-76
2023/12/21 00:21:35;;;;;;;16.60;2.83;;;10.70;99.90;;;;;;5027324;28;20033;-75
2023/12/21 00:24:01;;;;;;;15.00;2.47;;;10.70;99.90;;;;;;5022084;28;20022;-75
2023/12/21 00:26:26;;;;;;;10.20;2.38;;;10.70;99.90;;;;;;5020440;28;20098;-75
2023/12/21 00:28:52;;;;;;;17.50;3.25;;;10.70;99.90;;;;;;5025955;28;20026;-76
2023/12/21 00:31:18;;;;;;;13.38;2.60;;;10.70;99.90;;;;;;5025420;28;20044;-75
2023/12/21 00:33:43;;;;;;;13.30;2.63;;;10.70;99.90;;;;;;5026805;28;20025;-76
2023/12/21 00:36:15;;;;;;;14.85;2.65;;;10.70;99.90;;;;;;5023376;28;20028;-75
2023/12/21 00:38:41;;;;;;;13.73;2.60;;;10.70;99.90;;;;;;5009756;28;20086;-75
2023/12/21 00:41:06;;;;;;;20.45;2.78;;;10.80;99.90;;;;;;5026874;28;20034;-76
2023/12/21 00:43:32;;;;;;;17.55;2.60;;;10.70;99.90;;;;;;5025545;28;20129;-76
2023/12/21 00:45:58;;;;;;;15.27;2.72;;;10.70;99.90;;;;;;5026324;28;20443;-76
2023/12/21 00:48:23;;;;;;;14.02;2.65;;;10.70;99.90;;;;;;5024649;28;20084;-76
2023/12/21 00:50:49;;;;;;;22.95;3.47;;;10.70;99.90;;;;;;5023449;28;20461;-75
2023/12/21 00:53:15;;;;;;;12.18;2.78;;;10.70;99.90;;;;;;5019954;28;20026;-76
2023/12/21 00:55:41;;;;;;;17.05;2.88;;;10.70;99.90;;;;;;5026811;28;20014;-75
2023/12/21 00:58:06;;;;;;;19.52;3.42;;;10.70;99.90;;;;;;5014682;28;20443;-76
2023/12/21 01:00:32;;;;;;;19.77;2.67;;;10.70;99.90;;;;;;5016821;28;20037;-75
2023/12/21 01:02:58;;;;;;;22.35;3.33;;;10.70;99.90;;;;;;5024176;28;20089;-75
2023/12/21 01:05:24;;;;;;;17.48;2.70;;;10.70;99.90;;;;;;5022136;28;20078;-75
2023/12/21 01:07:49;;;;;;;17.13;3.28;;;10.70;99.90;;;;;;5029585;27;20049;-76
2023/12/21 01:10:15;;;;;;;19.58;3.35;;;10.70;99.90;;;;;;5098456;28;20021;-75
2023/12/21 01:12:41;;;;;;;16.63;3.05;;;10.70;99.90;;;;;;5026916;28;20101;-75
2023/12/21 01:15:07;;;;;;;17.85;2.88;;;10.70;99.90;;;;;;5017185;28;20417;-76
2023/12/21 01:17:33;;;;;;;19.88;3.03;;;10.70;99.90;;;;;;5030357;28;20078;-74
2023/12/21 01:19:59;;;;;;;16.65;2.83;;;10.70;99.90;;;;;;5029952;28;20029;-75
2023/12/21 01:22:25;;;;;;;18.05;2.85;;;10.70;99.90;;;;;;5030213;28;20052;-75
2023/12/21 01:24:50;;;;;;;15.05;2.85;;;10.70;99.90;;;;;;5029101;28;20100;-75
2023/12/21 01:27:16;;;;;;;18.02;3.58;;;10.60;99.90;;;;;;5029528;28;20022;-76
2023/12/21 01:29:41;;;;;;;15.40;2.90;;;10.70;99.90;;;;;;5028638;28;20036;-75
2023/12/21 01:32:07;;;;;;;18.50;2.95;;;10.70;99.90;;;;;;5027438;28;20029;-76
2023/12/21 01:34:32;;;;;;;10.82;2.40;;;10.70;99.90;;;;;;5025358;28;20029;-76
2023/12/21 01:36:58;;;;;;;25.00;3.13;;;10.70;99.90;;;;;;5029213;28;20026;-76
2023/12/21 01:39:24;;;;;;;21.73;3.15;;;10.70;99.90;;;;;;5029246;28;20025;-76
2023/12/21 01:41:50;;;;;;;18.45;2.80;;;10.70;99.90;;;;;;5029597;28;20481;-76
2023/12/21 01:44:15;;;;;;;17.23;2.65;;;10.70;99.90;;;;;;5029678;28;20022;-76
2023/12/21 01:46:43;;;;;;;15.73;2.70;;;10.70;99.90;;;;;;5029323;28;20080;-75
2023/12/21 01:49:09;;;;;;;14.07;2.65;;;10.70;99.90;;;;;;5025961;28;20045;-75
2023/12/21 01:51:34;;;;;;;20.30;3.40;;;10.70;99.90;;;;;;5028228;28;20389;-75
2023/12/21 01:54:03;;;;;;;18.90;3.33;;;10.70;99.90;;;;;;5029637;28;20029;-76
2023/12/21 01:56:32;;;;;;;14.60;3.13;;;10.70;99.90;;;;;;5037916;28;20096;-75
2023/12/21 01:58:59;;;;;;;17.80;2.78;;;10.70;99.90;;;;;;5054948;28;20041;-76
2023/12/21 02:01:26;;;;;;;16.15;2.92;;;10.70;99.90;;;;;;5029694;28;20032;-76
2023/12/21 02:03:53;;;;;;;18.95;3.22;;;10.70;99.90;;;;;;5020702;28;20022;-76
2023/12/21 02:06:18;;;;;;;13.50;3.33;;;10.70;99.90;;;;;;5026470;28;20351;-75
2023/12/21 02:08:44;;;;;;;19.90;3.45;;;10.70;99.90;;;;;;5029650;28;20104;-75
2023/12/21 02:11:10;;;;;;;23.42;3.33;;;10.70;99.90;;;;;;5028093;28;20496;-76
2023/12/21 02:13:36;;;;;;;18.38;3.15;;;10.70;99.90;;;;;;5021023;28;20014;-76
2023/12/21 02:16:09;;;;;;;18.95;3.35;;;10.70;99.90;;;;;;5010425;28;20077;-75
2023/12/21 02:18:35;;;;;;;24.45;3.83;;;10.70;99.90;;;;;;5013052;28;20026;-75
2023/12/21 02:21:02;;;;;;;26.65;3.88;;;10.70;99.90;;;;;;5030259;28;20031;-75
2023/12/21 02:23:32;;;;;;;25.15;3.50;;;10.70;99.90;;;;;;5024904;28;20018;-75
2023/12/21 02:25:58;;;;;;;22.52;3.42;;;10.70;99.90;;;;;;5029748;28;20061;-75
2023/12/21 02:28:24;;;;;;;23.10;3.72;;;10.70;99.90;;;;;;5026365;28;20441;-75
2023/12/21 02:30:49;;;;;;;22.50;3.42;;;10.70;99.90;;;;;;5010108;28;20474;-76
2023/12/21 02:33:15;;;;;;;18.77;3.10;;;10.60;99.90;;;;;;5017946;28;20026;-75
2023/12/21 02:35:41;;;;;;;18.88;3.22;;;10.70;99.90;;;;;;5027014;28;20630;-76
2023/12/21 02:38:06;;;;;;;22.95;3.30;;;10.70;99.90;;;;;;5021999;28;20040;-76
2023/12/21 02:40:32;;;;;;;21.77;3.20;;;10.60;99.90;;;;;;5028454;28;20049;-75
2023/12/21 02:42:57;;;;;;;17.00;3.10;;;10.60;99.90;;;;;;5020101;28;20029;-75
2023/12/21 02:45:23;;;;;;;30.70;4.13;;;10.70;99.90;;;;;;5029393;27;20053;-75
2023/12/21 02:47:48;;;;;;;21.02;3.42;;;10.70;99.90;;;;;;5018076;28;20013;-75
2023/12/21 02:50:14;;;;;;;18.50;3.78;;;10.70;99.90;;;;;;5027045;28;20030;-75
2023/12/21 02:52:40;;;;;;;23.08;3.35;;;10.70;99.90;;;;;;5028105;28;20108;-76
2023/12/21 02:55:05;;;;;;;18.20;3.30;;;10.70;99.90;;;;;;5028906;28;20075;-76
2023/12/21 02:57:31;;;;;;;24.52;3.28;;;10.70;99.90;;;;;;5026525;28;20112;-75
2023/12/21 02:59:57;;;;;;;21.02;4.25;;;10.70;99.90;;;;;;5021130;27;20025;-75
2023/12/21 03:02:22;;;;;;;28.88;4.30;;;10.70;99.90;;;;;;5028624;28;20731;-76
2023/12/21 03:04:48;;;;;;;23.45;3.35;;;10.70;99.90;;;;;;5084436;28;20024;-75
2023/12/21 03:07:13;;;;;;;22.88;3.40;;;10.70;99.90;;;;;;5026405;28;20021;-75
2023/12/21 03:09:39;;;;;;;19.42;3.47;;;10.70;99.90;;;;;;5093827;28;20377;-76
2023/12/21 03:12:05;;;;;;;23.30;3.58;;;10.70;99.90;;;;;;5022060;28;20069;-75
2023/12/21 03:14:31;;;;;;;20.67;3.15;;;10.70;99.90;;;;;;5026418;28;20018;-76
2023/12/21 03:16:56;;;;;;;20.27;3.45;;;10.70;99.90;;;;;;5028345;28;20057;-76
2023/12/21 03:19:22;;;;;;;23.40;3.70;;;10.70;99.90;;;;;;5028507;28;20509;-76
2023/12/21 03:21:47;;;;;;;18.75;3.38;;;10.70;99.90;;;;;;5027904;28;20029;-76
2023/12/21 03:24:13;;;;;;;15.88;3.47;;;10.70;99.90;;;;;;5028125;28;20104;-75
2023/12/21 03:26:39;;;;;;;25.45;3.58;;;10.70;99.90;;;;;;5028498;28;20381;-75
2023/12/21 03:29:04;;;;;;;24.23;3.65;;;10.60;99.90;;;;;;5028386;28;20029;-75
2023/12/21 03:31:30;;;;;;;20.02;4.15;;;10.70;99.90;;;;;;5028398;28;20381;-76
2023/12/21 03:33:56;;;;;;;17.30;3.25;;;10.70;99.90;;;;;;5027978;28;20714;-76
2023/12/21 03:36:21;;;;;;;23.83;3.38;;;10.70;99.90;;;;;;5028335;28;20024;-75
2023/12/21 03:38:47;;;;;;;19.52;3.58;;;10.70;99.90;;;;;;5022028;28;20133;-76
2023/12/21 03:41:13;;;;;;;23.30;3.45;;;10.70;99.90;;;;;;5020484;28;20026;-76
2023/12/21 03:43:38;;;;;;;19.60;3.17;;;10.70;99.90;;;;;;5028266;28;20134;-75
2023/12/21 03:46:09;;;;;;;21.70;3.13;;;10.70;99.90;;;;;;5027887;28;20074;-76
2023/12/21 03:48:34;;;;;;;19.90;3.28;;;10.70;99.90;;;;;;5028233;28;20028;-75
2023/12/21 03:51:00;;;;;;;28.38;3.83;;;10.70;99.90;;;;;;5028072;28;20025;-75
2023/12/21 03:53:26;;;;;;;18.40;3.15;;;10.70;99.90;;;;;;5026221;28;20014;-75
2023/12/21 03:55:51;;;;;;;18.70;2.97;;;10.70;99.90;;;;;;5027770;28;20483;-76
2023/12/21 03:58:17;;;;;;;22.42;3.35;;;10.70;99.90;;;;;;5027305;28;20074;-75
2023/12/21 04:00:42;;;;;;;15.80;2.47;;;10.70;99.90;;;;;;5022537;28;20029;-75
2023/12/21 04:03:08;;;;;;;17.73;2.53;;;10.70;99.90;;;;;;5026257;28;20030;-76
2023/12/21 04:05:34;;;;;;;16.17;2.40;;;10.80;99.90;;;;;;5023232;27;20466;-76
2023/12/21 04:07:59;;;;;;;18.45;2.25;;;10.80;99.90;;;;;;5025414;28;20063;-75
2023/12/21 04:10:25;;;;;;;16.95;2.45;;;10.80;99.90;;;;;;5022417;28;20525;-75
2023/12/21 04:12:51;;;;;;;15.65;2.30;;;10.80;99.90;;;;;;5025100;28;20014;-76
2023/12/21 04:15:16;;;;;;;13.88;2.45;;;10.80;99.90;;;;;;5017167;28;20049;-75
2023/12/21 04:17:42;;;;;;;22.83;2.97;;;10.80;99.90;;;;;;5027062;28;20040;-75
2023/12/21 04:20:09;;;;;;;22.30;2.85;;;10.80;99.90;;;;;;5029122;28;20038;-76
2023/12/21 04:22:36;;;;;;;19.40;2.47;;;10.80;99.90;;;;;;5026548;28;20095;-75
2023/12/21 04:25:02;;;;;;;21.27;2.92;;;10.80;99.90;;;;;;5028199;28;20022;-75
2023/12/21 04:27:28;;;;;;;21.92;3.38;;;10.80;99.90;;;;;;5014971;28;20105;-75
2023/12/21 04:29:54;;;;;;;16.00;2.78;;;10.80;99.90;;;;;;5026341;28;20025;-75
2023/12/21 04:32:19;;;;;;;15.50;2.78;;;10.80;99.90;;;;;;5026163;28;20397;-75
2023/12/21 04:34:45;;;;;;;23.23;3.00;;;10.80;99.90;;;;;;5025749;27;20052;-76
2023/12/21 04:37:12;;;;;;;15.95;2.72;;;10.80;99.90;;;;;;5025411;28;20466;-76
2023/12/21 04:39:38;;;;;;;17.40;2.80;;;10.80;99.90;;;;;;5024812;28;20056;-75
2023/12/21 04:42:03;;;;;;;18.17;3.38;;;10.80;99.90;;;;;;5023699;28;20434;-76
2023/12/21 04:44:29;;;;;;;22.23;3.13;;;10.80;99.90;;;;;;5021792;28;20022;-75
2023/12/21 04:46:55;;;;;;;18.63;3.45;;;10.70;99.90;;;;;;5026028;28;20028;-75
2023/12/21 04:49:22;;;;;;;17.10;2.50;;;10.70;99.90;;;;;;5026908;28;20100;-75
2023/12/21 04:51:48;;;;;;;17.67;2.42;;;10.70;99.90;;;;;;5020758;28;20087;-75
2023/12/21 04:54:14;;;;;;;20.35;2.88;;;10.70;99.90;;;;;;5020713;28;20018;-75
2023/12/21 04:56:43;;;;;;;15.13;2.55;;;10.70;99.90;;;;;;5027173;28;20032;-75
2023/12/21 04:59:09;;;;;;;25.80;2.70;;;10.70;99.90;;;;;;5020675;28;20537;-75
2023/12/21 05:01:35;;;;;;;14.07;2.70;;;10.70;99.90;;;;;;5020636;28;20109;-75
2023/12/21 05:04:06;;;;;;;14.00;2.40;;;10.70;99.90;;;;;;5025369;28;20018;-75
2023/12/21 05:06:31;;;;;;;20.50;2.95;;;10.70;99.90;;;;;;5027149;28;20030;-75
2023/12/21 05:08:59;;;;;;;21.50;3.08;;;10.70;99.90;;;;;;5025049;28;20028;-75
2023/12/21 05:11:25;;;;;;;18.30;2.45;;;10.70;99.90;;;;;;5027041;28;20021;-75
2023/12/21 05:13:50;;;;;;;19.95;2.70;;;10.70;99.90;;;;;;5026182;28;20022;-75
2023/12/21 05:16:16;;;;;;;22.90;2.78;;;10.70;99.90;;;;;;5026185;28;20485;-75
2023/12/21 05:18:42;;;;;;;16.33;2.38;;;10.70;99.90;;;;;;5013575;28;20058;-75
2023/12/21 05:21:09;;;;;;;15.52;2.95;;;10.70;99.90;;;;;;5025867;28;20030;-75
2023/12/21 05:23:34;;;;;;;17.90;2.63;;;10.70;99.90;;;;;;5026847;28;20393;-75
2023/12/21 05:26:00;;;;;;;14.32;2.40;;;10.70;99.90;;;;;;5026715;28;20021;-75
2023/12/21 05:28:26;;;;;;;21.25;2.72;;;10.60;99.90;;;;;;5023892;28;20371;-75
2023/12/21 05:30:52;;;;;;;22.00;3.10;;;10.60;99.90;;;;;;5022828;28;20014;-75
2023/12/21 05:33:17;;;;;;;12.85;2.88;;;10.60;99.90;;;;;;5021670;28;20370;-75
2023/12/21 05:35:43;;;;;;;19.52;2.92;;;10.60;99.90;;;;;;5026272;28;20513;-75
2023/12/21 05:38:09;;;;;;;23.58;3.33;;;10.60;99.90;;;;;;5026731;28;20028;-75
2023/12/21 05:40:34;;;;;;;19.00;2.63;;;10.60;99.90;;;;;;5021421;28;20523;-75
2023/12/21 05:43:00;;;;;;;15.55;3.20;;;10.60;99.90;;;;;;5018963;28;20028;-75
2023/12/21 05:45:25;;;;;;;16.75;2.72;;;10.60;99.90;;;;;;5014140;28;20111;-75
2023/12/21 05:47:51;;;;;;;22.90;3.30;;;10.60;99.90;;;;;;5025549;28;20482;-75
2023/12/21 05:50:17;;;;;;;15.95;3.05;;;10.60;99.90;;;;;;5029611;28;20030;-75
2023/12/21 05:52:42;;;;;;;19.48;2.92;;;10.60;99.90;;;;;;5022794;28;20506;-75
2023/12/21 05:55:14;;;;;;;17.30;3.05;;;10.60;99.90;;;;;;5026137;28;20025;-75
2023/12/21 05:57:40;;;;;;;12.88;2.42;;;10.60;99.90;;;;;;5017717;28;20470;-75
2023/12/21 06:00:06;;;;;;;20.00;3.35;;;10.70;99.90;;;;;;5028151;28;20053;-75
2023/12/21 06:02:32;;;;;;;13.95;2.97;;;10.80;99.90;;;;;;5029459;28;20073;-75
2023/12/21 06:04:57;;;;;;;15.40;2.72;;;10.80;99.90;;;;;;5029823;28;20022;-75
2023/12/21 06:07:23;;;;;;;16.48;2.60;;;10.80;99.90;;;;;;5020056;28;20037;-75
2023/12/21 06:09:50;;;;;;;21.23;2.80;;;10.80;99.90;;;;;;5022408;28;20025;-76
2023/12/21 06:12:15;;;;;;;14.68;2.58;;;10.80;99.90;;;;;;5027153;28;20391;-76
2023/12/21 06:14:42;;;;;;;13.40;2.78;;;10.80;99.90;;;;;;5014648;28;20098;-77
2023/12/21 06:17:09;;;;;;;15.30;2.53;;;10.90;99.90;;;;;;5022254;28;20026;-76
2023/12/21 06:19:35;;;;;;;19.27;2.65;;;10.90;99.90;;;;;;5105645;28;20379;-76
2023/12/21 06:22:00;;;;;;;18.17;2.72;;;11.00;99.90;;;;;;5020595;28;20030;-76
2023/12/21 06:24:26;;;;;;;20.80;3.55;;;11.00;99.90;;;;;;5024174;28;20418;-74
2023/12/21 06:26:52;;;;;;;17.95;2.55;;;11.00;99.90;;;;;;5030432;28;20462;-74
2023/12/21 06:29:17;;;;;;;15.55;2.60;;;11.00;99.90;;;;;;5025429;28;20516;-74
2023/12/21 06:31:43;;;;;;;14.90;2.47;;;11.00;99.90;;;;;;5016729;28;20049;-74
2023/12/21 06:34:08;;;;;;;18.10;2.53;;;11.00;99.90;;;;;;5013755;28;20050;-74
2023/12/21 06:36:34;;;;;;;19.52;2.88;;;11.00;99.90;;;;;;5020511;28;20051;-74
2023/12/21 06:38:59;;;;;;;15.02;2.55;;;11.00;99.90;;;;;;5024507;28;20306;-74
2023/12/21 06:41:25;;;;;;;30.63;2.92;;;11.00;99.90;;;;;;5017410;28;20145;-74
2023/12/21 06:43:51;;;;;;;14.93;2.22;;;11.10;99.90;;;;;;5028577;28;20698;-74
2023/12/21 06:46:16;;;;;;;23.38;3.13;;;11.00;99.90;;;;;;5026934;28;20022;-74
2023/12/21 06:48:42;;;;;;;18.30;2.78;;;11.00;99.90;;;;;;5025494;28;20533;-73
2023/12/21 06:51:08;;;;;;;14.18;2.35;;;11.00;99.90;;;;;;5021286;28;20021;-74
2023/12/21 06:53:34;;;;;;;17.10;2.63;;;11.00;99.90;;;;;;5018134;28;20029;-74
2023/12/21 06:56:00;;;;;;;14.18;2.13;;;11.00;99.90;;;;;;5089891;27;20033;-74
2023/12/21 06:58:27;;;;;;;20.02;2.53;;;11.00;99.90;;;;;;5025163;28;20033;-74
2023/12/21 07:00:53;;;;;;;16.02;2.35;;;11.00;99.90;;;;;;5024188;28;20055;-74
2023/12/21 07:03:19;;;;;;;17.02;2.40;;;11.00;99.90;;;;;;5095796;28;20026;-74
2023/12/21 07:05:44;;;;;;;15.88;2.60;;;11.00;99.90;;;;;;5015627;28;20017;-74
2023/12/21 07:08:10;;;;;;;19.35;3.40;;;11.00;99.90;;;;;;5028183;28;20119;-74
2023/12/21 07:10:35;;;;;;;20.00;2.95;;;11.00;99.90;;;;;;5026013;28;20334;-74
2023/12/21 07:13:01;;;;;;;18.52;3.20;;;11.00;99.90;;;;;;5024271;28;20441;-74
2023/12/21 07:15:27;;;;;;;23.17;2.90;;;10.90;99.90;;;;;;5023479;28;20132;-74
2023/12/21 07:17:52;;;;;;;20.20;2.92;;;10.90;99.90;;;;;;5028344;28;20033;-74
2023/12/21 07:20:24;;;;;;;19.02;2.53;;;10.90;99.90;;;;;;5026598;28;20117;-73
2023/12/21 07:22:50;;;;;;;20.98;2.67;;;10.80;99.90;;;;;;5018182;28;20030;-73
2023/12/21 07:25:16;;;;;;;23.23;3.22;;;10.80;99.90;;;;;;5024314;28;20018;-74
2023/12/21 07:27:41;;;;;;;20.92;3.00;;;10.80;99.90;;;;;;5025410;28;20507;-73
2023/12/21 07:30:07;;;;;;;22.23;3.00;;;10.80;99.90;;;;;;5025932;28;20037;-74
2023/12/21 07:32:33;;;;;;;16.27;3.10;;;10.80;99.90;;;;;;5026377;27;20026;-74
2023/12/21 07:34:59;;;;;;;20.45;3.10;;;10.70;99.90;;;;;;5028177;28;20533;-74
2023/12/21 07:37:25;;;;;;;27.45;3.30;;;10.70;99.90;;;;;;5026447;28;20021;-73
2023/12/21 07:39:50;;;;;;;22.23;3.00;;;10.70;99.90;;;;;;5026478;28;20149;-74
2023/12/21 07:42:17;;;;;;;17.55;2.63;;;10.70;99.90;;;;;;5022408;28;20101;-73
2023/12/21 07:44:43;;;;;;;20.48;2.58;;;10.70;99.90;;;;;;5041962;27;20429;-74
2023/12/21 07:47:09;;;;;;;18.08;3.00;;;10.70;99.90;;;;;;5066159;27;20079;-74
2023/12/21 07:49:35;;;;;;;21.20;2.58;;;10.70;99.90;;;;;;5023770;27;20055;-74
2023/12/21 07:52:01;;;;;;;16.45;3.00;;;10.70;99.90;;;;;;5025800;28;20423;-74
2023/12/21 07:54:26;;;;;;;22.33;2.67;;;10.70;99.90;;;;;;5040266;27;20019;-74
2023/12/21 07:56:52;;;;;;;23.50;2.97;;;10.70;99.90;;;;;;5057337;27;20479;-73
2023/12/21 07:59:19;;;;;;;21.13;3.28;;;10.70;99.90;;;;;;5047887;27;20044;-74
2023/12/21 08:01:46;;;;;;;21.08;2.95;;;10.80;99.90;;;;;;5021421;28;20061;-73
2023/12/21 08:04:11;;;;;;;21.52;3.17;;;10.80;99.90;;;;;;5022014;28;20025;-74
2023/12/21 08:06:37;;;;;;;25.55;3.40;;;10.80;99.90;;;;;;5017455;28;20041;-73
2023/12/21 08:09:03;;;;;;;20.27;2.63;;;10.90;99.90;;;;;;5019316;28;20553;-74
2023/12/21 08:11:28;;;;;;;15.73;2.00;;;10.90;99.90;;;;;;5025666;27;20028;-74
2023/12/21 08:13:54;;;;;;;20.73;3.00;;;11.00;99.90;;;;;;5027018;28;20021;-74
2023/12/21 08:16:19;;;;;;;20.52;3.13;;;11.00;99.90;;;;;;5017953;28;20121;-73
2023/12/21 08:18:45;;;;;;;16.67;2.53;;;11.10;99.90;;;;;;5026859;28;20033;-74
2023/12/21 08:21:11;;;;;;;21.08;2.58;;;11.10;99.90;;;;;;5027083;28;20082;-74
2023/12/21 08:23:37;;;;;;;23.35;3.00;;;11.20;99.90;;;;;;5018472;28;20034;-74
2023/12/21 08:26:05;;;;;;;18.77;2.38;;;11.20;99.90;;;;;;5084396;28;20087;-74
2023/12/21 08:28:31;;;;;;;15.85;2.60;;;11.20;99.90;;;;;;5021810;28;20030;-76
2023/12/21 08:30:57;;;;;;;17.67;2.63;;;11.20;99.90;;;;;;5024168;28;20025;-76
2023/12/21 08:33:23;;;;;;;16.65;2.80;;;11.30;99.90;;;;;;5027065;28;20026;-75
2023/12/21 08:35:48;;;;;;;15.85;2.45;;;11.30;99.90;;;;;;5026708;28;20049;-76
2023/12/21 08:38:14;;;;;;;16.67;2.58;;;11.40;99.90;;;;;;5026476;28;20018;-76
2023/12/21 08:40:40;;;;;;;13.80;2.20;;;11.40;99.90;;;;;;5027418;28;20109;-76
2023/12/21 08:43:05;;;;;;;15.10;2.17;;;11.50;99.90;;;;;;5026658;28;20470;-76
2023/12/21 08:45:32;;;;;;;13.85;2.13;;;11.50;99.90;;;;;;5016630;28;20034;-76
2023/12/21 08:47:57;;;;;;;19.55;2.72;;;11.50;99.90;;;;;;5023437;28;20018;-76
2023/12/21 08:50:23;;;;;;;24.42;3.05;;;11.50;99.90;;;;;;5025146;28;20409;-76
2023/12/21 08:52:49;;;;;;;22.38;2.67;;;11.50;99.90;;;;;;5022690;28;20030;-76
2023/12/21 08:55:14;;;;;;;17.73;2.83;;;11.60;99.90;;;;;;5026409;28;20083;-76
2023/12/21 08:57:40;;;;;;;19.00;3.40;;;11.60;99.90;;;;;;5018327;28;20030;-76
2023/12/21 09:00:10;;;;;;;23.95;3.00;;;11.60;99.90;;;;;;5013964;28;20029;-76
2023/12/21 09:02:37;;;;;;;20.95;3.53;;;11.60;99.90;;;;;;5026303;28;20096;-75
2023/12/21 09:05:03;;;;;;;23.13;3.17;;;11.60;99.90;;;;;;5024357;28;20072;-75
2023/12/21 09:07:29;;;;;;;21.60;3.00;;;11.60;99.90;;;;;;5025468;28;20460;-75
2023/12/21 09:09:55;;;;;;;20.73;2.42;;;11.60;99.90;;;;;;5023020;28;20030;-76
2023/12/21 09:12:21;;;;;;;20.20;2.55;;;11.60;99.90;;;;;;5022609;28;20447;-76
2023/12/21 09:14:46;;;;;;;17.77;3.08;;;11.60;99.90;;;;;;5019434;28;20025;-76
2023/12/21 09:17:15;;;;;;;22.17;2.80;;;11.50;99.90;;;;;;5024796;28;20030;-76
2023/12/21 09:19:43;;;;;;;11.43;1.83;;;11.50;99.90;;;;;;5026275;28;20441;-75
2023/12/21 09:22:09;;;;;;;9.75;1.98;;;11.50;99.90;;;;;;5022329;28;20104;-75
2023/12/21 09:24:35;;;;;;;15.05;2.22;;;11.50;99.90;;;;;;5019752;28;20026;-75
2023/12/21 09:27:00;;;;;;;14.13;2.00;;;11.50;99.90;;;;;;5029910;28;20022;-76
2023/12/21 09:29:26;;;;;;;14.15;1.95;;;11.50;99.90;;;;;;5027136;28;20085;-75
2023/12/21 09:31:52;;;;;;;17.23;1.90;;;11.50;99.90;;;;;;5020303;28;20029;-74
2023/12/21 09:34:18;;;;;;;15.50;2.45;;;11.50;99.90;;;;;;5029872;28;20028;-74
2023/12/21 09:36:43;;;;;;;9.32;1.80;;;11.50;99.90;;;;;;5069935;28;20486;-74
2023/12/21 09:39:11;;;;;;;16.77;2.53;;;11.50;99.90;;;;;;5023178;28;20025;-74
2023/12/21 09:41:37;;;;;;;14.90;2.40;;;11.50;99.90;;;;;;5027594;27;20048;-74
2023/12/21 09:44:04;;;;;;;21.38;2.72;;;11.60;99.90;;;;;;5025592;28;20373;-74
2023/12/21 09:46:37;;;;;;;15.40;2.03;;;11.60;99.90;;;;;;5040298;27;20101;-74
2023/12/21 09:49:04;;;;;;;17.70;2.40;;;11.60;99.90;;;;;;5024299;28;20034;-74
2023/12/21 09:51:31;;;;;;;12.10;2.20;;;11.70;99.90;;;;;;5022399;28;20037;-74
2023/12/21 09:53:59;;;;;;;15.60;2.80;;;11.70;99.90;;;;;;5029702;27;20431;-74
2023/12/21 09:56:26;;;;;;;9.73;1.73;;;11.70;99.90;;;;;;5030019;27;20021;-74
2023/12/21 09:58:52;;;;;;;11.98;2.13;;;11.70;99.90;;;;;;5098034;28;20025;-74
2023/12/21 10:01:18;;;;;;;15.30;2.22;;;11.70;99.90;;;;;;5020681;28;20049;-74
2023/12/21 10:03:44;;;;;;;14.75;2.58;;;11.80;99.90;;;;;;5029570;28;20553;-73
2023/12/21 10:06:11;;;;;;;15.32;2.17;;;11.80;99.90;;;;;;5027613;28;20077;-75
2023/12/21 10:08:36;;;;;;;17.15;2.10;;;11.80;99.90;;;;;;5026240;28;20029;-74
2023/12/21 10:11:03;;;;;;;18.27;2.70;;;11.80;99.90;;;;;;5094747;28;20070;-74
2023/12/21 10:13:29;;;;;;;15.30;2.40;;;11.80;99.90;;;;;;5016328;28;20045;-74
2023/12/21 10:16:03;;;;;;;21.90;2.47;;;11.80;99.90;;;;;;5027758;28;20038;-74
2023/12/21 10:18:29;;;;;;;13.95;2.60;;;11.80;99.90;;;;;;5028792;28;20029;-74
2023/12/21 10:20:55;;;;;;;18.58;2.70;;;11.80;99.90;;;;;;5031793;27;20493;-73
2023/12/21 10:23:21;;;;;;;16.83;2.90;;;11.80;99.90;;;;;;5015041;28;20083;-74
2023/12/21 10:25:48;;;;;;;16.25;2.88;;;11.70;99.90;;;;;;5026709;27;20017;-74
2023/12/21 10:28:14;;;;;;;15.73;2.63;;;11.70;99.90;;;;;;5028419;28;20041;-74
2023/12/21 10:30:40;;;;;;;20.38;3.08;;;11.70;99.90;;;;;;5029198;28;20017;-74
2023/12/21 10:33:09;;;;;;;17.00;3.03;;;11.70;99.90;;;;;;5028866;28;20017;-74
2023/12/21 10:35:37;;;;;;;20.33;2.83;;;11.70;99.90;;;;;;5060994;27;20100;-73
2023/12/21 10:38:03;;;;;;;17.38;2.55;;;11.70;99.90;;;;;;5032447;27;20022;-74
2023/12/21 10:40:29;;;;;;;17.60;2.83;;;11.70;99.90;;;;;;5027435;28;20034;-74
2023/12/21 10:42:56;;;;;;;16.13;2.38;;;11.70;99.90;;;;;;5033424;27;20024;-74
2023/12/21 10:45:22;;;;;;;18.60;2.22;;;11.70;99.90;;;;;;5024406;28;20025;-74
2023/12/21 10:47:52;;;;;;;17.55;2.95;;;11.70;99.90;;;;;;5110931;27;20074;-73
2023/12/21 10:50:19;;;;;;;17.50;2.60;;;11.70;99.90;;;;;;5033809;27;20064;-74
2023/12/21 10:52:48;;;;;;;12.55;2.60;;;11.70;99.90;;;;;;5018565;28;20121;-73
2023/12/21 10:55:15;;;;;;;16.92;2.58;;;11.70;99.90;;;;;;5049223;27;20029;-74
2023/12/21 10:57:42;;;;;;;16.30;2.47;;;11.70;99.90;;;;;;5033212;27;20079;-74
2023/12/21 11:00:13;;;;;;;12.90;2.53;;;11.80;99.90;;;;;;5021888;28;20064;-74
2023/12/21 11:02:48;;;;;;;17.38;2.92;;;11.80;99.90;;;;;;5027030;27;20036;-74
2023/12/21 11:05:19;;;;;;;19.25;2.80;;;11.80;99.90;;;;;;5031869;28;20513;-74
2023/12/21 11:07:53;;;;;;;21.33;2.83;;;11.80;99.90;;;;;;5042721;27;20023;-73
2023/12/21 11:10:21;;;;;;;23.70;3.05;;;11.70;99.90;;;;;;5042830;27;20485;-74
2023/12/21 11:12:47;;;;;;;19.35;2.60;;;11.80;99.90;;;;;;5028038;27;20069;-74
2023/12/21 11:15:18;;;;;;;21.02;2.85;;;11.80;99.90;;;;;;5017524;28;20054;-73
2023/12/21 11:17:50;;;;;;;22.65;3.22;;;11.80;99.90;;;;;;5024545;28;20382;-74
2023/12/21 11:20:26;;;;;;;18.20;2.67;;;11.80;99.90;;;;;;5020952;28;20026;-74
2023/12/21 11:22:52;;;;;;;26.13;2.70;;;11.90;99.90;;;;;;5094949;28;20086;-74
2023/12/21 11:25:22;;;;;;;27.75;3.03;;;11.90;99.90;;;;;;5016322;28;20533;-74
2023/12/21 11:27:51;;;;;;;23.48;2.65;;;11.90;99.90;;;;;;5087878;27;20017;-74
2023/12/21 11:30:18;;;;;;;19.08;2.85;;;11.90;99.90;;;;;;5017222;27;20442;-74
2023/12/21 11:32:46;;;;;;;19.83;2.47;;;12.00;99.90;;;;;;5025829;28;20017;-73
2023/12/21 11:35:23;;;;;;;18.98;2.90;;;12.00;99.90;;;;;;5025183;28;20025;-74
2023/12/21 11:37:54;;;;;;;16.35;2.60;;;12.00;99.90;;;;;;5088319;28;20494;-73
2023/12/21 11:40:21;;;;;;;16.52;2.83;;;12.10;99.90;;;;;;5026179;27;20030;-74
2023/12/21 11:42:48;;;;;;;18.92;2.13;;;12.10;99.90;;;;;;5024882;28;20037;-74
2023/12/21 11:45:31;;;;;;;14.07;2.33;;;12.10;99.90;;;;;;5010450;28;20019;-74
2023/12/21 11:48:04;;;;;;;19.42;2.78;;;12.20;99.90;;;;;;5024523;28;20033;-74
2023/12/21 11:50:31;;;;;;;20.23;2.35;;;12.20;99.90;;;;;;5026795;28;20467;-74
2023/12/21 11:53:10;;;;;;;8.43;1.70;;;12.10;99.90;;;;;;5014121;28;20029;-74
2023/12/21 11:55:41;;;;;;;15.75;2.55;;;12.20;99.90;;;;;;5027383;28;20052;-74
2023/12/21 11:58:08;;;;;;;14.48;2.08;;;12.20;99.90;;;;;;5025715;28;20041;-74
2023/12/21 12:00:40;;;;;;;14.02;2.80;;;12.20;99.90;;;;;;5020261;28;20034;-74
2023/12/21 12:03:07;;;;;;;17.85;2.47;;;12.20;99.90;;;;;;5025554;28;20106;-74
2023/12/21 12:05:32;;;;;;;11.45;2.25;;;12.20;99.90;;;;;;5021070;27;20124;-74
2023/12/21 12:07:58;;;;;;;16.85;2.38;;;12.20;99.90;;;;;;5026114;28;20444;-74
2023/12/21 12:10:24;;;;;;;17.10;2.47;;;12.30;99.90;;;;;;5088210;28;20030;-74
2023/12/21 12:12:52;;;;;;;20.95;2.72;;;12.30;99.90;;;;;;5015499;28;20021;-74
2023/12/21 12:15:18;;;;;;;15.77;2.85;;;12.20;99.90;;;;;;5045834;27;20565;-74
2023/12/21 12:17:44;;;;;;;14.70;2.67;;;12.20;99.90;;;;;;5048882;27;20033;-74
2023/12/21 12:20:10;;;;;;;12.45;2.40;;;12.20;99.90;;;;;;5050425;27;20023;-75
2023/12/21 12:22:37;;;;;;;14.80;2.50;;;12.20;99.90;;;;;;5015601;28;20025;-74
2023/12/21 12:25:06;;;;;;;15.70;2.35;;;12.10;99.90;;;;;;5026628;28;20029;-74
2023/12/21 12:27:32;;;;;;;17.25;2.22;;;12.10;99.90;;;;;;5023447;28;20030;-74
2023/12/21 12:29:58;;;;;;;18.80;2.63;;;12.10;99.90;;;;;;5012256;28;20037;-74
2023/12/21 12:32:24;;;;;;;13.23;2.42;;;12.10;99.90;;;;;;5010930;28;20353;-74
2023/12/21 12:34:51;;;;;;;24.58;3.20;;;12.10;99.90;;;;;;5027114;28;20526;-74